Time;durP1;ratioP1;P1;durP2;ratioP2;P2;SDS_P1;SDS_P2;PMS_P1;PMS_P2;Temp;Humidity;BMP_temperature;BMP_pressure;BME280_temperature;BME280_humidity;BME280_pressure;Samples;Min_cycle;Max_cycle;Signal;HPM_P1;HPM_P2
2023/09/04 00:00:56;;;;;;;3.83;1.80;;;;;;;25.16;66.39;101769.38;4961732;28;20051;-68
2023/09/04 00:03:26;;;;;;;4.25;2.30;;;;;;;24.92;66.77;101765.13;4974968;28;20050;-67
2023/09/04 00:05:54;;;;;;;5.15;2.25;;;;;;;25.00;67.67;101763.19;4989685;28;20481;-68
2023/09/04 00:08:22;;;;;;;3.35;2.20;;;;;;;24.95;67.45;101763.53;4988227;28;20050;-69
2023/09/04 00:10:50;;;;;;;3.80;1.90;;;;;;;24.61;68.27;101764.69;4975824;28;20073;-68
2023/09/04 00:13:17;;;;;;;3.17;1.98;;;;;;;24.35;68.36;101755.13;4973919;28;20156;-67
2023/09/04 00:15:44;;;;;;;3.13;1.92;;;;;;;24.50;68.67;101751.28;4972136;28;20412;-68
2023/09/04 00:18:13;;;;;;;4.55;2.30;;;;;;;24.62;68.39;101753.03;4958497;28;20442;-66
2023/09/04 00:20:40;;;;;;;4.95;2.28;;;;;;;24.57;68.54;101755.38;4975034;28;20059;-67
2023/09/04 00:23:08;;;;;;;3.63;2.10;;;;;;;24.59;68.04;101744.53;4975329;28;20051;-67
2023/09/04 00:25:35;;;;;;;3.95;2.05;;;;;;;24.75;68.34;101748.81;4974320;28;20069;-67
2023/09/04 00:28:03;;;;;;;4.60;2.05;;;;;;;24.39;68.38;101744.69;4975809;28;20437;-67
2023/09/04 00:30:30;;;;;;;4.38;2.00;;;;;;;24.41;69.03;101744.31;4975902;28;20055;-66
2023/09/04 00:32:57;;;;;;;3.63;2.00;;;;;;;24.52;69.40;101743.28;4978026;28;20055;-67
2023/09/04 00:35:25;;;;;;;3.65;2.30;;;;;;;24.62;68.83;101738.16;4973831;28;20054;-67
2023/09/04 00:37:52;;;;;;;5.57;2.00;;;;;;;24.76;69.15;101739.16;4969381;28;20062;-66
2023/09/04 00:40:20;;;;;;;4.97;1.92;;;;;;;24.67;68.34;101740.63;4975327;28;20394;-67
2023/09/04 00:42:47;;;;;;;5.25;2.42;;;;;;;24.71;68.44;101733.88;4969823;28;20047;-68
2023/09/04 00:45:14;;;;;;;8.98;2.35;;;;;;;24.64;68.59;101732.94;4954602;29;20070;-66
2023/09/04 00:47:43;;;;;;;4.22;2.00;;;;;;;24.57;69.00;101738.47;4956083;29;20047;-68
2023/09/04 00:50:15;;;;;;;6.15;2.25;;;;;;;24.45;69.28;101740.38;4957163;28;20059;-67
2023/09/04 00:52:42;;;;;;;4.57;2.30;;;;;;;24.53;68.69;101738.44;4975044;28;20525;-68
2023/09/04 00:55:10;;;;;;;7.50;2.03;;;;;;;24.57;68.46;101735.66;4964309;28;20059;-68
2023/09/04 00:57:39;;;;;;;4.53;1.90;;;;;;;24.39;69.06;101729.81;4972493;28;20485;-69
2023/09/04 01:00:12;;;;;;;4.50;2.17;;;;;;;24.65;69.08;101729.75;4957581;28;20407;-69
2023/09/04 01:02:41;;;;;;;3.03;1.80;;;;;;;24.65;68.99;101745.84;4957681;28;20058;-68
2023/09/04 01:05:08;;;;;;;4.03;2.10;;;;;;;24.63;67.96;101742.59;4983675;28;20488;-67
2023/09/04 01:07:37;;;;;;;3.92;2.13;;;;;;;24.67;68.93;101743.44;4958456;28;20062;-68
2023/09/04 01:10:07;;;;;;;6.00;2.07;;;;;;;24.73;68.71;101736.28;4987014;28;20050;-67
2023/09/04 01:12:58;;;;;;;3.70;2.30;;;;;;;24.61;67.88;101737.34;4957721;28;20050;-68
2023/09/04 01:15:26;;;;;;;3.60;2.20;;;;;;;24.55;68.15;101733.22;4974489;28;20051;-68
2023/09/04 01:17:54;;;;;;;3.42;1.92;;;;;;;24.53;68.67;101729.97;4957458;28;20058;-68
2023/09/04 01:20:24;;;;;;;4.18;2.00;;;;;;;24.58;67.59;101728.84;4973496;28;20050;-67
2023/09/04 01:22:52;;;;;;;7.93;2.13;;;;;;;24.32;68.19;101726.91;4974380;28;20406;-68
2023/09/04 01:25:21;;;;;;;5.32;2.17;;;;;;;24.61;68.81;101726.06;4973102;28;20055;-69
2023/09/04 01:27:56;;;;;;;4.90;2.25;;;;;;;24.49;68.25;101732.78;4953152;28;20061;-67
2023/09/04 01:30:30;;;;;;;5.38;2.35;;;;;;;24.33;68.45;101714.44;4973033;28;20063;-67
2023/09/04 01:33:01;;;;;;;4.68;1.83;;;;;;;24.34;69.38;101713.25;4971553;28;20054;-69
2023/09/04 01:35:30;;;;;;;5.00;2.38;;;;;;;24.41;69.15;101705.69;4954553;28;20706;-67
2023/09/04 01:37:58;;;;;;;3.92;1.80;;;;;;;24.29;69.36;101705.94;4952894;29;20059;-67
2023/09/04 01:40:25;;;;;;;5.65;2.30;;;;;;;24.46;69.23;101705.34;4960345;28;20074;-68
2023/09/04 01:42:53;;;;;;;5.28;2.10;;;;;;;24.51;68.90;101707.03;4974089;28;20049;-67
2023/09/04 01:45:20;;;;;;;3.90;2.00;;;;;;;24.50;68.60;101700.59;4973551;28;20066;-67
2023/09/04 01:47:47;;;;;;;3.15;2.00;;;;;;;24.40;68.95;101697.63;4973856;28;20050;-67
2023/09/04 01:50:14;;;;;;;4.18;2.17;;;;;;;24.26;69.01;101695.47;4971710;28;20047;-67
2023/09/04 01:52:42;;;;;;;8.57;2.40;;;;;;;24.27;69.46;101704.69;4975795;28;20053;-68
2023/09/04 01:55:09;;;;;;;3.92;2.20;;;;;;;24.06;69.18;101688.34;4971430;28;20038;-67
2023/09/04 01:57:37;;;;;;;3.22;2.22;;;;;;;24.15;69.01;101686.03;4955951;28;20430;-67
2023/09/04 02:00:05;;;;;;;5.72;2.42;;;;;;;23.81;69.12;101681.53;4963746;28;20050;-68
2023/09/04 02:02:41;;;;;;;3.80;1.98;;;;;;;23.49;70.50;101682.22;4971229;28;20046;-67
2023/09/04 02:05:08;;;;;;;5.60;2.33;;;;;;;23.47;71.89;101671.34;4966203;28;20061;-68
2023/09/04 02:07:35;;;;;;;4.28;2.38;;;;;;;23.62;72.03;101669.56;4988224;28;20061;-67
2023/09/04 02:10:03;;;;;;;5.57;2.42;;;;;;;23.63;71.06;101663.56;4967156;28;20055;-67
2023/09/04 02:12:30;;;;;;;5.40;2.30;;;;;;;23.58;71.73;101663.88;4974290;28;20050;-66
2023/09/04 02:14:58;;;;;;;5.40;2.30;;;;;;;23.55;70.72;101661.84;4973777;28;20038;-67
2023/09/04 02:17:25;;;;;;;4.53;2.28;;;;;;;23.49;70.99;101660.53;4972490;28;20058;-67
2023/09/04 02:19:53;;;;;;;6.57;2.45;;;;;;;23.73;72.14;101662.91;4971973;28;20042;-67
2023/09/04 02:22:20;;;;;;;4.00;2.58;;;;;;;23.80;71.33;101665.81;4969046;28;20069;-67
2023/09/04 02:24:47;;;;;;;4.35;2.20;;;;;;;24.01;71.21;101659.69;4940298;29;20047;-67
2023/09/04 02:27:15;;;;;;;4.35;2.33;;;;;;;24.03;69.94;101655.31;4954303;29;20055;-68
2023/09/04 02:29:42;;;;;;;4.07;2.33;;;;;;;23.95;70.30;101661.22;4953146;29;20482;-67
2023/09/04 02:32:09;;;;;;;4.90;2.40;;;;;;;23.93;69.85;101655.16;4964910;28;20517;-67
2023/09/04 02:34:40;;;;;;;6.68;2.45;;;;;;;23.88;69.06;101650.69;4973191;28;20047;-66
2023/09/04 02:37:07;;;;;;;4.55;2.50;;;;;;;23.72;69.39;101649.22;4972947;28;20061;-67
2023/09/04 02:39:36;;;;;;;4.97;2.58;;;;;;;23.52;70.67;101656.94;4968754;28;20055;-67
2023/09/04 02:42:03;;;;;;;4.53;2.30;;;;;;;23.74;71.33;101646.84;4954537;28;20055;-67
2023/09/04 02:44:30;;;;;;;9.65;2.42;;;;;;;23.82;70.02;101643.75;4962369;28;20046;-67
2023/09/04 02:46:58;;;;;;;6.00;2.50;;;;;;;23.85;70.67;101645.78;4956225;28;20062;-67
2023/09/04 02:49:25;;;;;;;4.50;2.35;;;;;;;24.02;69.42;101647.25;4972644;28;20061;-67
2023/09/04 02:51:52;;;;;;;3.67;2.25;;;;;;;24.02;70.13;101647.25;4973425;28;20066;-66
2023/09/04 02:54:20;;;;;;;3.67;2.22;;;;;;;23.95;70.03;101641.50;4973383;28;20059;-67
2023/09/04 02:56:47;;;;;;;4.80;2.42;;;;;;;23.98;69.93;101643.56;4971874;28;20413;-67
2023/09/04 02:59:14;;;;;;;4.50;2.63;;;;;;;24.00;69.84;101635.56;4975138;28;20489;-67
2023/09/04 03:01:42;;;;;;;4.95;2.70;;;;;;;23.89;70.15;101643.84;4976616;28;20055;-68
2023/09/04 03:04:09;;;;;;;3.92;2.25;;;;;;;23.56;69.63;101642.94;4972726;28;20050;-67
2023/09/04 03:06:38;;;;;;;5.45;2.80;;;;;;;23.74;70.88;101650.47;4952316;29;20055;-68
2023/09/04 03:09:05;;;;;;;4.88;2.70;;;;;;;23.72;70.32;101638.78;4971326;28;20059;-58
2023/09/04 03:11:33;;;;;;;5.28;2.83;;;;;;;23.57;69.85;101642.59;4983201;28;20062;-60
2023/09/04 03:14:00;;;;;;;7.50;2.90;;;;;;;23.36;70.44;101636.63;4954058;29;20039;-60
2023/09/04 03:16:28;;;;;;;5.47;3.10;;;;;;;23.77;70.36;101630.00;4968352;28;20055;-56
2023/09/04 03:18:55;;;;;;;6.18;2.90;;;;;;;23.70;69.63;101626.28;4970261;28;20106;-60
2023/09/04 03:21:23;;;;;;;4.82;2.80;;;;;;;23.54;70.16;101631.28;4985932;28;20066;-59
2023/09/04 03:23:51;;;;;;;5.40;2.75;;;;;;;23.45;70.77;101628.72;4972262;28;20127;-61
2023/09/04 03:26:18;;;;;;;5.90;3.00;;;;;;;23.69;69.44;101625.47;4975313;28;20062;-59
2023/09/04 03:28:47;;;;;;;4.55;2.80;;;;;;;23.61;70.55;101628.53;4991475;28;20387;-61
2023/09/04 03:31:17;;;;;;;5.97;2.95;;;;;;;23.73;69.67;101623.50;4994092;28;20050;-60
2023/09/04 03:33:45;;;;;;;5.40;2.70;;;;;;;23.70;70.22;101621.47;4974190;28;20091;-59
2023/09/04 03:36:12;;;;;;;5.07;3.28;;;;;;;23.41;70.56;101620.22;4973671;28;20642;-60
2023/09/04 03:38:39;;;;;;;4.57;2.85;;;;;;;23.51;70.25;101620.78;4991865;28;20503;-60
2023/09/04 03:41:08;;;;;;;4.55;2.70;;;;;;;23.37;69.41;101619.38;4958153;28;20058;-58
2023/09/04 03:43:35;;;;;;;4.25;2.78;;;;;;;23.30;70.77;101619.25;4941229;28;20069;-60
2023/09/04 03:46:02;;;;;;;5.25;3.10;;;;;;;23.42;71.21;101621.88;4975853;28;20417;-59
2023/09/04 03:48:30;;;;;;;4.85;3.00;;;;;;;23.59;70.75;101623.31;4990846;28;20058;-60
2023/09/04 03:50:59;;;;;;;9.18;2.80;;;;;;;23.34;69.85;101619.31;4975528;28;20055;-60
2023/09/04 03:53:26;;;;;;;4.30;2.63;;;;;;;23.23;70.49;101621.94;4988990;28;20062;-62
2023/09/04 03:56:04;;;;;;;5.75;3.38;;;;;;;23.39;70.29;101627.44;4974819;28;20043;-59
2023/09/04 03:58:32;;;;;;;5.30;2.88;;;;;;;23.12;70.78;101625.75;4989171;28;20051;-60
2023/09/04 04:00:59;;;;;;;5.20;2.70;;;;;;;23.34;70.93;101631.34;4984417;28;20047;-59
2023/09/04 04:03:28;;;;;;;4.15;2.92;;;;;;;23.38;70.32;101628.59;4974477;28;20517;-59
2023/09/04 04:05:56;;;;;;;6.45;3.45;;;;;;;23.42;69.99;101621.03;4975758;28;20157;-59
2023/09/04 04:08:24;;;;;;;6.28;3.30;;;;;;;23.25;70.52;101615.94;4976037;28;20051;-60
2023/09/04 04:10:57;;;;;;;6.95;2.78;;;;;;;23.45;69.82;101608.25;4975487;28;20051;-59
2023/09/04 04:13:24;;;;;;;4.18;3.10;;;;;;;23.38;69.63;101614.53;4975805;28;20051;-59
2023/09/04 04:15:56;;;;;;;9.77;3.00;;;;;;;23.41;69.02;101611.00;4956046;28;20055;-59
2023/09/04 04:18:24;;;;;;;4.82;3.53;;;;;;;23.32;69.16;101608.47;4974861;28;20078;-61
2023/09/04 04:20:58;;;;;;;4.75;2.80;;;;;;;23.21;69.79;101615.06;4973668;28;20049;-60
2023/09/04 04:23:26;;;;;;;4.63;3.05;;;;;;;23.07;70.61;101614.81;4975629;28;20078;-60
2023/09/04 04:25:53;;;;;;;5.70;3.28;;;;;;;23.02;70.22;101624.38;4969174;28;20042;-58
2023/09/04 04:28:21;;;;;;;4.63;3.22;;;;;;;23.18;70.79;101618.63;4976627;28;20058;-60
2023/09/04 04:30:49;;;;;;;6.30;3.17;;;;;;;23.32;70.39;101619.72;4973628;28;20047;-60
2023/09/04 04:33:17;;;;;;;5.20;3.40;;;;;;;23.27;69.84;101622.81;4976673;28;20053;-60
2023/09/04 04:35:44;;;;;;;5.65;3.47;;;;;;;23.11;70.30;101612.88;4978355;28;20593;-59
2023/09/04 04:38:11;;;;;;;6.47;3.80;;;;;;;23.17;69.69;101612.19;4973790;28;20540;-60
2023/09/04 04:40:39;;;;;;;6.60;3.78;;;;;;;23.25;70.48;101625.19;4960450;28;20054;-63
2023/09/04 04:43:07;;;;;;;6.35;3.45;;;;;;;23.30;69.96;101624.88;4974042;28;20054;-60
2023/09/04 04:45:35;;;;;;;5.35;4.00;;;;;;;23.15;70.14;101620.19;4965289;28;20677;-57
2023/09/04 04:48:03;;;;;;;5.60;3.47;;;;;;;23.15;69.76;101625.78;4974334;28;20051;-60
2023/09/04 04:50:31;;;;;;;5.80;3.35;;;;;;;23.30;69.79;101612.81;4973838;28;20054;-60
2023/09/04 04:52:58;;;;;;;6.13;3.78;;;;;;;23.01;68.87;101616.34;4969120;28;20050;-61
2023/09/04 04:55:25;;;;;;;5.45;3.67;;;;;;;23.17;69.69;101608.59;4962352;28;20047;-59
2023/09/04 04:57:53;;;;;;;5.55;3.83;;;;;;;23.06;69.11;101607.59;4974068;28;20058;-58
2023/09/04 05:00:21;;;;;;;10.55;4.13;;;;;;;22.97;69.84;101619.09;4977039;28;20088;-60
2023/09/04 05:02:49;;;;;;;6.85;4.03;;;;;;;22.80;70.28;101616.78;4974447;28;20074;-59
2023/09/04 05:05:17;;;;;;;6.40;4.50;;;;;;;22.64;71.19;101613.28;4957868;28;20046;-57
2023/09/04 05:07:44;;;;;;;6.95;3.80;;;;;;;22.84;70.56;101617.63;4974000;28;20054;-59
2023/09/04 05:10:13;;;;;;;6.20;3.55;;;;;;;22.90;71.18;101616.16;4957929;28;20110;-59
2023/09/04 05:12:42;;;;;;;5.45;3.85;;;;;;;22.86;70.13;101625.69;4957024;28;20054;-59
2023/09/04 05:15:10;;;;;;;5.63;3.67;;;;;;;22.92;70.07;101618.59;4974700;28;20050;-61
2023/09/04 05:17:37;;;;;;;8.73;4.40;;;;;;;22.35;71.05;101620.31;4972953;28;20151;-60
2023/09/04 05:20:05;;;;;;;8.88;4.57;;;;;;;22.16;72.38;101619.50;4959642;28;20051;-60
2023/09/04 05:22:32;;;;;;;6.25;3.80;;;;;;;22.20;73.18;101618.41;4974613;28;20050;-59
2023/09/04 05:25:00;;;;;;;7.65;4.20;;;;;;;22.64;72.69;101623.69;4974786;28;20058;-58
2023/09/04 05:27:28;;;;;;;5.90;3.92;;;;;;;22.66;72.33;101624.13;4956888;28;20062;-60
2023/09/04 05:29:55;;;;;;;7.78;4.28;;;;;;;22.93;71.68;101620.19;4974582;28;20055;-60
2023/09/04 05:32:22;;;;;;;8.65;4.57;;;;;;;22.78;69.90;101619.16;4973479;28;20062;-59
2023/09/04 05:34:53;;;;;;;6.18;4.25;;;;;;;22.37;71.27;101619.13;4974237;28;20054;-60
2023/09/04 05:37:21;;;;;;;8.60;4.38;;;;;;;22.65;71.91;101622.53;4975131;28;20043;-59
2023/09/04 05:39:49;;;;;;;6.82;4.50;;;;;;;22.83;71.49;101621.66;4970394;28;20055;-60
2023/09/04 05:42:16;;;;;;;6.65;4.43;;;;;;;22.73;71.64;101635.50;4972628;28;20047;-61
2023/09/04 05:44:43;;;;;;;7.22;4.50;;;;;;;22.82;71.00;101627.66;4974079;28;20047;-61
2023/09/04 05:47:10;;;;;;;7.43;4.30;;;;;;;22.80;71.17;101636.44;4973205;28;20053;-60
2023/09/04 05:49:38;;;;;;;9.63;5.00;;;;;;;22.89;70.12;101628.56;4973869;28;20055;-61
2023/09/04 05:52:06;;;;;;;6.63;4.18;;;;;;;23.07;70.06;101634.50;4977854;28;20046;-61
2023/09/04 05:54:33;;;;;;;7.47;4.20;;;;;;;22.92;70.34;101635.44;4979491;28;20548;-61
2023/09/04 05:57:00;;;;;;;6.57;4.68;;;;;;;22.78;70.00;101632.38;4973882;28;20054;-60
2023/09/04 05:59:28;;;;;;;7.70;4.50;;;;;;;22.90;69.99;101633.00;4978961;28;20163;-60
2023/09/04 06:01:55;;;;;;;9.40;4.35;;;;;;;22.92;69.95;101630.66;4976274;28;20444;-61
2023/09/04 06:04:22;;;;;;;8.77;5.00;;;;;;;22.84;69.33;101636.50;4973603;28;20062;-62
2023/09/04 06:06:52;;;;;;;8.90;4.70;;;;;;;22.85;69.40;101627.72;4972903;28;20093;-60
2023/09/04 06:09:19;;;;;;;7.93;4.35;;;;;;;23.06;69.67;101632.88;4973422;28;20054;-59
2023/09/04 06:11:47;;;;;;;8.18;4.63;;;;;;;22.96;69.75;101628.69;4973368;28;20049;-61
2023/09/04 06:14:15;;;;;;;8.23;4.70;;;;;;;23.07;68.59;101631.69;4973149;28;20051;-60
2023/09/04 06:16:42;;;;;;;8.75;4.85;;;;;;;23.08;68.45;101639.72;4973444;28;20055;-59
2023/09/04 06:19:10;;;;;;;6.82;4.53;;;;;;;23.15;68.58;101637.03;4972107;28;20616;-62
2023/09/04 06:21:38;;;;;;;8.18;4.80;;;;;;;23.13;68.81;101642.25;4973418;28;20387;-60
2023/09/04 06:24:05;;;;;;;8.40;5.43;;;;;;;23.10;68.44;101639.38;4972825;28;20050;-61
2023/09/04 06:26:33;;;;;;;8.57;5.60;;;;;;;22.76;68.07;101643.16;4972518;28;20410;-61
2023/09/04 06:29:00;;;;;;;7.90;5.13;;;;;;;22.34;70.23;101640.31;4969113;28;20924;-60
2023/09/04 06:31:27;;;;;;;7.75;5.05;;;;;;;22.07;70.49;101641.38;4975857;28;20061;-61
2023/09/04 06:33:55;;;;;;;13.43;5.63;;;;;;;22.23;71.96;101631.69;4961126;28;20476;-61
2023/09/04 06:36:22;;;;;;;8.40;5.85;;;;;;;22.25;70.41;101643.38;4972556;28;20047;-60
2023/09/04 06:38:50;;;;;;;7.47;4.53;;;;;;;22.38;71.68;101646.84;4973091;28;20054;-60
2023/09/04 06:41:17;;;;;;;8.82;5.10;;;;;;;22.39;71.21;101639.22;4970620;28;20058;-61
2023/09/04 06:43:45;;;;;;;9.50;5.32;;;;;;;22.46;71.35;101639.34;4980021;28;20050;-60
2023/09/04 06:46:12;;;;;;;7.28;4.75;;;;;;;22.55;70.77;101634.34;4972891;28;20062;-61
2023/09/04 06:48:40;;;;;;;9.63;5.60;;;;;;;22.73;68.99;101635.50;4968559;28;20053;-61
2023/09/04 06:51:08;;;;;;;10.07;5.45;;;;;;;22.49;71.11;101627.41;4969212;28;20055;-62
2023/09/04 06:53:35;;;;;;;8.55;5.47;;;;;;;22.00;70.52;101628.00;4970466;28;20055;-59
2023/09/04 06:56:03;;;;;;;7.95;4.88;;;;;;;22.18;72.23;101625.56;4964987;28;20335;-59
2023/09/04 06:58:30;;;;;;;12.93;5.32;;;;;;;22.29;71.16;101637.81;4970866;28;20062;-56
2023/09/04 07:00:58;;;;;;;8.10;5.43;;;;;;;22.50;70.57;101632.63;4971960;28;20058;-58
2023/09/04 07:03:25;;;;;;;12.65;5.43;;;;;;;22.57;69.67;101644.03;4939519;28;20050;-62
2023/09/04 07:05:53;;;;;;;8.25;5.18;;;;;;;22.32;71.08;101637.91;4952850;28;20042;-61
2023/09/04 07:08:21;;;;;;;15.30;10.10;;;;;;;22.41;69.88;101634.84;4977877;28;20055;-60
2023/09/04 07:10:49;;;;;;;9.23;5.15;;;;;;;22.13;70.29;101635.09;4972726;28;20058;-59
2023/09/04 07:13:16;;;;;;;7.60;4.70;;;;;;;22.64;71.23;101630.13;4972535;28;20054;-58
2023/09/04 07:15:44;;;;;;;10.43;4.90;;;;;;;22.57;69.48;101620.75;4971141;28;20038;-60
2023/09/04 07:18:12;;;;;;;7.90;5.15;;;;;;;22.72;68.95;101628.25;4978085;28;20050;-59
2023/09/04 07:20:39;;;;;;;16.27;5.47;;;;;;;22.83;69.48;101618.00;4973568;28;20055;-60
2023/09/04 07:23:06;;;;;;;10.20;5.32;;;;;;;22.75;70.16;101627.50;4969478;28;20054;-61
2023/09/04 07:25:47;;;;;;;9.32;4.85;;;;;;;22.76;68.00;101624.31;4965596;28;20050;-60
2023/09/04 07:28:14;;;;;;;11.43;5.18;;;;;;;22.48;68.50;101631.38;4953464;28;20054;-59
2023/09/04 07:30:42;;;;;;;9.02;5.88;;;;;;;22.52;68.84;101633.06;4971054;28;20051;-61
2023/09/04 07:33:09;;;;;;;7.78;5.63;;;;;;;22.57;68.53;101627.19;4970519;28;20081;-58
2023/09/04 07:35:37;;;;;;;8.88;5.40;;;;;;;22.60;67.75;101631.22;4966495;28;20062;-56
2023/09/04 07:38:04;;;;;;;8.50;4.95;;;;;;;21.83;70.84;101620.00;4970270;28;20701;-55
2023/09/04 07:40:33;;;;;;;14.43;9.43;;;;;;;22.01;70.24;101609.16;4970769;28;20046;-59
2023/09/04 07:43:01;;;;;;;8.02;5.18;;;;;;;21.91;71.57;101612.56;4970339;28;20053;-58
2023/09/04 07:45:29;;;;;;;13.00;5.32;;;;;;;21.77;71.40;101618.66;4952893;28;20054;-59
2023/09/04 07:47:56;;;;;;;7.63;4.65;;;;;;;21.76;71.78;101614.22;4970098;28;20050;-59
2023/09/04 07:50:24;;;;;;;11.57;5.35;;;;;;;22.14;70.88;101611.44;4971783;28;20059;-59
2023/09/04 07:52:51;;;;;;;11.90;7.10;;;;;;;21.96;71.07;101624.31;4951745;28;20058;-59
2023/09/04 07:55:18;;;;;;;12.70;7.78;;;;;;;21.93;70.87;101610.22;4974099;28;20042;-62
2023/09/04 07:57:46;;;;;;;11.02;6.20;;;;;;;21.82;71.74;101624.00;4973088;28;20478;-59
2023/09/04 08:00:19;;;;;;;14.02;5.50;;;;;;;21.77;71.59;101615.03;4971653;28;20043;-59
2023/09/04 08:02:48;;;;;;;8.63;5.45;;;;;;;21.78;71.92;101611.06;4972571;28;20049;-56
2023/09/04 08:05:16;;;;;;;12.73;5.28;;;;;;;21.87;71.61;101618.09;4974372;28;20050;-60
2023/09/04 08:07:43;;;;;;;10.27;5.10;;;;;;;21.80;71.82;101615.16;4972390;28;20050;-58
2023/09/04 08:10:13;;;;;;;13.10;5.60;;;;;;;21.98;71.53;101616.34;4967088;28;20055;-59
2023/09/04 08:12:41;;;;;;;10.57;5.20;;;;;;;22.22;70.41;101623.66;4972179;28;20043;-59
2023/09/04 08:15:10;;;;;;;11.27;5.78;;;;;;;22.01;70.69;101621.22;4937000;28;20059;-58
2023/09/04 08:17:40;;;;;;;8.95;4.95;;;;;;;21.95;70.84;101617.06;4973869;28;20458;-60
2023/09/04 08:20:08;;;;;;;12.95;4.90;;;;;;;21.87;71.18;101620.09;4970960;28;20054;-58
2023/09/04 08:22:36;;;;;;;10.88;4.75;;;;;;;21.94;71.43;101614.63;4972329;28;20161;-59
2023/09/04 08:25:04;;;;;;;9.07;5.07;;;;;;;22.07;70.93;101616.91;4971030;28;20051;-58
2023/09/04 08:27:31;;;;;;;8.25;4.30;;;;;;;22.02;70.83;101617.22;4973336;28;20611;-60
2023/09/04 08:29:58;;;;;;;9.88;5.03;;;;;;;22.17;70.59;101612.72;4970600;28;20047;-60
2023/09/04 08:32:25;;;;;;;11.45;4.93;;;;;;;22.11;70.59;101606.59;4971731;28;20462;-60
2023/09/04 08:34:53;;;;;;;9.13;5.18;;;;;;;22.35;70.15;101609.06;4973196;28;20054;-60
2023/09/04 08:37:20;;;;;;;12.55;5.18;;;;;;;22.53;69.43;101605.78;4972745;28;20069;-61
2023/09/04 08:39:48;;;;;;;10.77;4.68;;;;;;;22.60;68.75;101600.34;4973647;28;20510;-59
2023/09/04 08:42:15;;;;;;;13.68;4.88;;;;;;;22.71;68.52;101604.97;4975194;28;20148;-59
2023/09/04 08:44:43;;;;;;;10.60;5.47;;;;;;;22.65;68.57;101600.06;4971160;28;20058;-61
2023/09/04 08:47:12;;;;;;;11.02;5.28;;;;;;;22.63;68.68;101589.16;4970168;28;20123;-60
2023/09/04 08:49:39;;;;;;;11.55;5.10;;;;;;;22.51;69.44;101580.88;4951283;28;20509;-61
2023/09/04 08:52:07;;;;;;;11.68;5.20;;;;;;;22.55;69.28;101584.63;4968776;28;20067;-60
2023/09/04 08:54:34;;;;;;;17.05;5.03;;;;;;;22.67;68.97;101584.44;4969819;28;21627;-61
2023/09/04 08:57:01;;;;;;;8.07;4.70;;;;;;;22.78;68.70;101591.06;4969602;28;20066;-60
2023/09/04 08:59:29;;;;;;;8.73;4.60;;;;;;;23.15;67.44;101591.28;4970596;28;20069;-60
2023/09/04 09:02:00;;;;;;;11.85;4.50;;;;;;;23.26;66.77;101595.06;4973070;28;20061;-60
2023/09/04 09:04:28;;;;;;;9.75;4.63;;;;;;;22.97;67.51;101588.19;4955438;28;20054;-59
2023/09/04 09:06:56;;;;;;;6.60;4.15;;;;;;;23.12;67.03;101581.59;4970551;28;20054;-60
2023/09/04 09:09:23;;;;;;;10.57;4.38;;;;;;;23.16;67.00;101576.03;4953857;28;20072;-58
2023/09/04 09:11:53;;;;;;;7.00;4.40;;;;;;;23.19;66.84;101576.06;4952635;28;20054;-58
2023/09/04 09:14:25;;;;;;;7.57;4.25;;;;;;;23.38;66.65;101573.19;4971044;28;20177;-58
2023/09/04 09:17:05;;;;;;;14.07;8.48;;;;;;;23.52;65.81;101574.59;4968815;28;20062;-61
2023/09/04 09:19:35;;;;;;;13.13;7.10;;;;;;;23.57;65.92;101563.84;4950679;28;20054;-61
2023/09/04 09:22:14;;;;;;;11.93;4.97;;;;;;;23.68;65.37;101564.75;4968397;28;20055;-58
2023/09/04 09:24:51;;;;;;;10.85;4.57;;;;;;;23.44;65.90;101556.81;4968482;28;20057;-59
2023/09/04 09:27:20;;;;;;;7.38;4.22;;;;;;;23.38;66.30;101556.31;4968358;28;20999;-60
2023/09/04 09:29:51;;;;;;;6.53;4.20;;;;;;;23.45;66.19;101555.59;4970071;28;20054;-60
2023/09/04 09:32:19;;;;;;;10.85;4.97;;;;;;;23.57;65.96;101557.38;4972471;28;20046;-59
2023/09/04 09:34:54;;;;;;;11.70;4.60;;;;;;;23.58;65.82;101553.38;4969900;28;20055;-58
2023/09/04 09:37:24;;;;;;;9.38;4.10;;;;;;;23.59;66.16;101547.34;4972068;28;20058;-58
2023/09/04 09:39:51;;;;;;;10.68;4.43;;;;;;;23.59;65.97;101552.19;4954740;28;20042;-58
2023/09/04 09:42:20;;;;;;;10.55;4.53;;;;;;;23.54;66.43;101544.88;4971073;28;20058;-61
2023/09/04 09:44:58;;;;;;;7.13;4.63;;;;;;;23.64;66.02;101549.84;5062039;27;20936;-59
2023/09/04 09:47:26;;;;;;;11.95;4.18;;;;;;;23.72;65.59;101545.94;5062560;28;20056;-57
2023/09/04 09:49:55;;;;;;;8.65;4.00;;;;;;;23.86;65.53;101531.22;5060537;28;20060;-61
2023/09/04 09:52:22;;;;;;;10.90;4.57;;;;;;;24.04;64.94;101532.28;5064127;28;20049;-58
2023/09/04 09:54:49;;;;;;;8.82;4.32;;;;;;;24.07;64.49;101526.69;5059034;28;20045;-60
2023/09/04 09:57:17;;;;;;;13.25;8.13;;;;;;;24.24;63.82;101526.06;5068085;28;20057;-60
2023/09/04 09:59:49;;;;;;;10.38;5.13;;;;;;;24.41;63.23;101522.63;5063775;28;20060;-60
2023/09/04 10:02:20;;;;;;;6.82;3.97;;;;;;;24.32;63.19;101527.75;5060128;28;20052;-61
2023/09/04 10:04:48;;;;;;;6.97;4.05;;;;;;;24.44;62.80;101513.38;5054693;28;20045;-60
2023/09/04 10:07:18;;;;;;;11.00;4.07;;;;;;;24.56;62.94;101512.31;5065243;28;20055;-59
2023/09/04 10:09:46;;;;;;;7.43;4.18;;;;;;;24.61;62.48;101516.75;5061003;28;20738;-59
2023/09/04 10:12:20;;;;;;;10.45;4.00;;;;;;;24.61;62.58;101516.75;5047813;28;20053;-60
2023/09/04 10:14:49;;;;;;;9.70;3.80;;;;;;;24.86;62.05;101520.63;5064766;28;20056;-62
2023/09/04 10:17:28;;;;;;;6.97;4.00;;;;;;;25.03;61.11;101509.50;5062690;28;20045;-61
2023/09/04 10:19:57;;;;;;;9.63;4.17;;;;;;;25.57;60.10;101497.34;5060920;28;20307;-59
2023/09/04 10:22:30;;;;;;;9.30;3.97;;;;;;;25.64;59.38;101490.91;5064757;28;20075;-60
2023/09/04 10:25:18;;;;;;;10.05;4.32;;;;;;;25.32;59.74;101491.53;5054446;28;20515;-58
2023/09/04 10:27:50;;;;;;;7.88;4.07;;;;;;;25.34;59.72;101486.31;5064559;28;20068;-59
2023/09/04 10:30:18;;;;;;;7.95;3.50;;;;;;;25.48;59.82;101475.13;5061740;28;20435;-59
2023/09/04 10:32:45;;;;;;;6.43;3.83;;;;;;;25.38;59.35;101473.06;5066718;28;20458;-61
2023/09/04 10:35:13;;;;;;;5.93;3.97;;;;;;;25.36;59.17;101475.47;5066416;28;20048;-59
2023/09/04 10:37:41;;;;;;;7.00;3.90;;;;;;;25.31;59.50;101466.56;5068661;28;20041;-60
2023/09/04 10:40:11;;;;;;;5.22;3.50;;;;;;;25.40;59.63;101470.66;5066874;28;20052;-61
2023/09/04 10:42:41;;;;;;;10.50;4.05;;;;;;;25.37;59.37;101459.34;5065341;28;20052;-58
2023/09/04 10:45:13;;;;;;;11.35;4.20;;;;;;;25.58;59.53;101447.38;5064645;28;20048;-58
2023/09/04 10:47:49;;;;;;;8.30;3.60;;;;;;;25.94;58.50;101446.25;5065409;28;20057;-64
2023/09/04 10:50:32;;;;;;;8.45;4.03;;;;;;;25.75;57.75;101449.44;5073682;28;20044;-60
2023/09/04 10:53:02;;;;;;;7.70;4.80;;;;;;;25.71;58.18;101435.31;5056271;28;20053;-58
2023/09/04 10:55:31;;;;;;;7.10;3.58;;;;;;;25.85;57.28;101432.53;5049388;28;20045;-60
2023/09/04 10:58:06;;;;;;;6.40;3.55;;;;;;;25.90;57.57;101431.31;5047805;28;20427;-62
2023/09/04 11:00:40;;;;;;;7.25;3.97;;;;;;;25.79;57.34;101434.13;5043107;28;20040;-60
2023/09/04 11:03:23;;;;;;;6.72;3.30;;;;;;;25.70;57.46;101428.03;5046672;28;20057;-60
2023/09/04 11:06:08;;;;;;;10.70;3.85;;;;;;;25.86;57.27;101424.84;5049344;28;20064;-60
2023/09/04 11:08:38;;;;;;;8.73;4.03;;;;;;;25.95;57.08;101419.63;5054430;28;20135;-59
2023/09/04 11:11:08;;;;;;;6.72;3.45;;;;;;;26.19;56.39;101416.03;5046918;28;20053;-59
2023/09/04 11:13:39;;;;;;;6.47;3.88;;;;;;;26.17;55.85;101410.81;5041959;28;20049;-61
2023/09/04 11:16:07;;;;;;;9.88;3.42;;;;;;;26.30;55.86;101409.22;5045575;28;20063;-61
2023/09/04 11:18:36;;;;;;;6.43;3.60;;;;;;;26.50;54.77;101413.22;5049209;28;20049;-60
2023/09/04 11:21:04;;;;;;;5.43;3.63;;;;;;;26.59;54.37;101401.50;5043378;28;20121;-59
2023/09/04 11:23:33;;;;;;;7.80;3.40;;;;;;;26.68;54.12;101401.94;5039210;28;20049;-58
2023/09/04 11:26:02;;;;;;;9.27;3.40;;;;;;;26.81;53.43;101399.50;5049628;28;20096;-60
2023/09/04 11:28:30;;;;;;;5.28;3.17;;;;;;;26.97;52.58;101392.16;5045456;28;20052;-59
2023/09/04 11:30:58;;;;;;;10.30;3.22;;;;;;;26.81;52.63;101397.47;5050233;28;20144;-58